sensor_id;sensor_type;location;lat;lon;timestamp;P1;durP1;ratioP1;P2;durP2;ratioP2
16800;SDS011;8518;53.236;10.384;2023-09-19T00:02:12;1.87;;;1.27;;
16800;SDS011;8518;53.236;10.384;2023-09-19T00:04:37;1.87;;;1.40;;
16800;SDS011;8518;53.236;10.384;2023-09-19T00:10:27;3.70;;;1.87;;
16800;SDS011;8518;53.236;10.384;2023-09-19T00:12:56;1.50;;;1.13;;
16800;SDS011;8518;53.236;10.384;2023-09-19T00:15:22;2.57;;;1.30;;
16800;SDS011;8518;53.236;10.384;2023-09-19T00:21:10;6.40;;;1.80;;
16800;SDS011;8518;53.236;10.384;2023-09-19T00:23:36;2.27;;;1.50;;
16800;SDS011;8518;53.236;10.384;2023-09-19T00:26:02;2.13;;;1.40;;
16800;SDS011;8518;53.236;10.384;2023-09-19T00:28:34;2.30;;;1.73;;
16800;SDS011;8518;53.236;10.384;2023-09-19T00:31:03;4.47;;;2.00;;
16800;SDS011;8518;53.236;10.384;2023-09-19T00:33:30;4.23;;;1.87;;
16800;SDS011;8518;53.236;10.384;2023-09-19T00:35:56;3.37;;;2.10;;
16800;SDS011;8518;53.236;10.384;2023-09-19T00:38:27;3.40;;;2.10;;
16800;SDS011;8518;53.236;10.384;2023-09-19T00:40:53;5.37;;;1.60;;
16800;SDS011;8518;53.236;10.384;2023-09-19T00:43:22;2.67;;;1.40;;
16800;SDS011;8518;53.236;10.384;2023-09-19T00:45:50;5.90;;;2.07;;
16800;SDS011;8518;53.236;10.384;2023-09-19T00:48:21;3.50;;;1.93;;
16800;SDS011;8518;53.236;10.384;2023-09-19T00:50:47;3.27;;;1.90;;
16800;SDS011;8518;53.236;10.384;2023-09-19T00:53:19;2.93;;;2.00;;
16800;SDS011;8518;53.236;10.384;2023-09-19T00:55:51;4.27;;;2.00;;
16800;SDS011;8518;53.236;10.384;2023-09-19T00:58:21;3.27;;;1.90;;
16800;SDS011;8518;53.236;10.384;2023-09-19T01:00:47;4.20;;;2.23;;
16800;SDS011;8518;53.236;10.384;2023-09-19T01:03:17;3.47;;;2.20;;
16800;SDS011;8518;53.236;10.384;2023-09-19T01:05:49;2.97;;;2.00;;
16800;SDS011;8518;53.236;10.384;2023-09-19T01:08:15;3.97;;;2.50;;
16800;SDS011;8518;53.236;10.384;2023-09-19T01:10:44;5.40;;;2.63;;
16800;SDS011;8518;53.236;10.384;2023-09-19T01:20:01;5.43;;;2.63;;
16800;SDS011;8518;53.236;10.384;2023-09-19T01:25:57;5.67;;;2.50;;
16800;SDS011;8518;53.236;10.384;2023-09-19T01:28:45;3.43;;;2.60;;
16800;SDS011;8518;53.236;10.384;2023-09-19T01:31:28;4.83;;;3.10;;
16800;SDS011;8518;53.236;10.384;2023-09-19T01:34:01;6.80;;;3.07;;
16800;SDS011;8518;53.236;10.384;2023-09-19T01:40:05;4.70;;;2.90;;
16800;SDS011;8518;53.236;10.384;2023-09-19T01:46:08;3.87;;;2.97;;
16800;SDS011;8518;53.236;10.384;2023-09-19T01:48:40;6.53;;;2.80;;
16800;SDS011;8518;53.236;10.384;2023-09-19T01:51:13;5.80;;;3.23;;
16800;SDS011;8518;53.236;10.384;2023-09-19T01:54:09;6.77;;;3.23;;
16800;SDS011;8518;53.236;10.384;2023-09-19T02:00:09;3.17;;;2.73;;
16800;SDS011;8518;53.236;10.384;2023-09-19T02:02:40;4.27;;;2.80;;
16800;SDS011;8518;53.236;10.384;2023-09-19T02:05:10;5.43;;;2.93;;
16800;SDS011;8518;53.236;10.384;2023-09-19T02:11:05;5.23;;;3.17;;
16800;SDS011;8518;53.236;10.384;2023-09-19T02:13:33;4.47;;;2.57;;
16800;SDS011;8518;53.236;10.384;2023-09-19T02:16:06;5.20;;;2.90;;
16800;SDS011;8518;53.236;10.384;2023-09-19T02:18:32;7.97;;;3.60;;
16800;SDS011;8518;53.236;10.384;2023-09-19T02:21:01;5.40;;;3.13;;
16800;SDS011;8518;53.236;10.384;2023-09-19T02:23:31;6.90;;;3.27;;
16800;SDS011;8518;53.236;10.384;2023-09-19T02:25:59;6.40;;;2.93;;
16800;SDS011;8518;53.236;10.384;2023-09-19T02:28:32;4.63;;;2.57;;
16800;SDS011;8518;53.236;10.384;2023-09-19T02:30:58;5.57;;;3.03;;
16800;SDS011;8518;53.236;10.384;2023-09-19T02:33:28;5.90;;;2.90;;
16800;SDS011;8518;53.236;10.384;2023-09-19T02:35:57;5.30;;;3.00;;
16800;SDS011;8518;53.236;10.384;2023-09-19T02:38:28;5.83;;;3.13;;
16800;SDS011;8518;53.236;10.384;2023-09-19T02:41:11;5.50;;;2.87;;
16800;SDS011;8518;53.236;10.384;2023-09-19T02:43:37;5.50;;;2.73;;
16800;SDS011;8518;53.236;10.384;2023-09-19T02:46:02;6.77;;;2.70;;
16800;SDS011;8518;53.236;10.384;2023-09-19T02:48:28;3.83;;;2.60;;
16800;SDS011;8518;53.236;10.384;2023-09-19T02:50:54;5.77;;;2.90;;
16800;SDS011;8518;53.236;10.384;2023-09-19T02:53:20;6.93;;;2.80;;
16800;SDS011;8518;53.236;10.384;2023-09-19T02:55:52;6.10;;;2.50;;
16800;SDS011;8518;53.236;10.384;2023-09-19T02:58:18;6.27;;;2.63;;
16800;SDS011;8518;53.236;10.384;2023-09-19T03:00:44;6.33;;;2.70;;
16800;SDS011;8518;53.236;10.384;2023-09-19T03:03:16;8.70;;;3.20;;
16800;SDS011;8518;53.236;10.384;2023-09-19T03:05:42;6.50;;;3.00;;
16800;SDS011;8518;53.236;10.384;2023-09-19T03:08:12;8.10;;;2.93;;
16800;SDS011;8518;53.236;10.384;2023-09-19T03:10:42;6.70;;;2.17;;
16800;SDS011;8518;53.236;10.384;2023-09-19T03:13:16;7.80;;;2.73;;
16800;SDS011;8518;53.236;10.384;2023-09-19T03:15:42;11.27;;;2.77;;
16800;SDS011;8518;53.236;10.384;2023-09-19T03:18:12;5.27;;;2.40;;
16800;SDS011;8518;53.236;10.384;2023-09-19T03:20:38;7.30;;;2.60;;
16800;SDS011;8518;53.236;10.384;2023-09-19T03:23:04;5.97;;;2.60;;
16800;SDS011;8518;53.236;10.384;2023-09-19T03:25:31;4.33;;;2.10;;
16800;SDS011;8518;53.236;10.384;2023-09-19T03:31:21;2.63;;;1.53;;
16800;SDS011;8518;53.236;10.384;2023-09-19T03:33:47;4.33;;;1.53;;
16800;SDS011;8518;53.236;10.384;2023-09-19T03:39:35;1.87;;;1.20;;
16800;SDS011;8518;53.236;10.384;2023-09-19T03:42:02;3.70;;;1.43;;
16800;SDS011;8518;53.236;10.384;2023-09-19T03:44:32;3.13;;;1.47;;
16800;SDS011;8518;53.236;10.384;2023-09-19T03:50:20;2.33;;;1.23;;
16800;SDS011;8518;53.236;10.384;2023-09-19T03:52:51;2.63;;;1.40;;
16800;SDS011;8518;53.236;10.384;2023-09-19T03:55:25;3.70;;;1.30;;
16800;SDS011;8518;53.236;10.384;2023-09-19T04:01:19;4.40;;;1.40;;
16800;SDS011;8518;53.236;10.384;2023-09-19T04:03:45;5.23;;;1.50;;
16800;SDS011;8518;53.236;10.384;2023-09-19T04:09:37;3.70;;;1.73;;
16800;SDS011;8518;53.236;10.384;2023-09-19T04:15:25;5.53;;;2.20;;
16800;SDS011;8518;53.236;10.384;2023-09-19T04:21:13;4.53;;;1.83;;
16800;SDS011;8518;53.236;10.384;2023-09-19T04:23:39;6.77;;;2.07;;
16800;SDS011;8518;53.236;10.384;2023-09-19T04:29:30;6.30;;;1.70;;
16800;SDS011;8518;53.236;10.384;2023-09-19T04:31:56;7.30;;;2.40;;
16800;SDS011;8518;53.236;10.384;2023-09-19T04:34:24;5.87;;;2.20;;
16800;SDS011;8518;53.236;10.384;2023-09-19T04:40:16;5.67;;;1.73;;
16800;SDS011;8518;53.236;10.384;2023-09-19T04:42:45;6.67;;;1.83;;
16800;SDS011;8518;53.236;10.384;2023-09-19T04:45:18;4.27;;;1.83;;
16800;SDS011;8518;53.236;10.384;2023-09-19T04:51:07;5.07;;;1.43;;
16800;SDS011;8518;53.236;10.384;2023-09-19T04:53:35;9.10;;;2.10;;
16800;SDS011;8518;53.236;10.384;2023-09-19T04:56:02;6.27;;;2.00;;
16800;SDS011;8518;53.236;10.384;2023-09-19T04:58:32;5.67;;;1.80;;
16800;SDS011;8518;53.236;10.384;2023-09-19T05:00:58;4.17;;;1.50;;
16800;SDS011;8518;53.236;10.384;2023-09-19T05:03:28;5.20;;;1.80;;
16800;SDS011;8518;53.236;10.384;2023-09-19T05:05:57;5.40;;;1.67;;
16800;SDS011;8518;53.236;10.384;2023-09-19T05:08:22;7.03;;;2.13;;
16800;SDS011;8518;53.236;10.384;2023-09-19T05:10:49;5.77;;;1.70;;
16800;SDS011;8518;53.236;10.384;2023-09-19T05:13:16;7.37;;;2.17;;
16800;SDS011;8518;53.236;10.384;2023-09-19T05:15:48;5.53;;;2.20;;
16800;SDS011;8518;53.236;10.384;2023-09-19T05:18:18;4.03;;;1.67;;
16800;SDS011;8518;53.236;10.384;2023-09-19T05:20:43;7.13;;;2.30;;
16800;SDS011;8518;53.236;10.384;2023-09-19T05:23:09;5.80;;;1.97;;
16800;SDS011;8518;53.236;10.384;2023-09-19T05:25:38;6.17;;;1.83;;
16800;SDS011;8518;53.236;10.384;2023-09-19T05:31:27;5.90;;;2.03;;
16800;SDS011;8518;53.236;10.384;2023-09-19T05:33:56;7.83;;;2.20;;
16800;SDS011;8518;53.236;10.384;2023-09-19T05:39:48;5.37;;;2.07;;
16800;SDS011;8518;53.236;10.384;2023-09-19T05:42:18;4.90;;;1.87;;
16800;SDS011;8518;53.236;10.384;2023-09-19T05:44:44;6.13;;;2.17;;
16800;SDS011;8518;53.236;10.384;2023-09-19T05:50:32;6.03;;;2.00;;
16800;SDS011;8518;53.236;10.384;2023-09-19T05:53:07;4.57;;;2.00;;
16800;SDS011;8518;53.236;10.384;2023-09-19T05:55:42;7.60;;;2.73;;
16800;SDS011;8518;53.236;10.384;2023-09-19T06:01:30;5.80;;;2.30;;
16800;SDS011;8518;53.236;10.384;2023-09-19T06:03:57;6.53;;;2.07;;
16800;SDS011;8518;53.236;10.384;2023-09-19T06:09:47;6.43;;;2.20;;
16800;SDS011;8518;53.236;10.384;2023-09-19T06:15:40;7.50;;;2.40;;
16800;SDS011;8518;53.236;10.384;2023-09-19T06:21:28;5.63;;;2.00;;
16800;SDS011;8518;53.236;10.384;2023-09-19T06:23:53;8.63;;;2.17;;
16800;SDS011;8518;53.236;10.384;2023-09-19T06:29:41;5.53;;;2.00;;
16800;SDS011;8518;53.236;10.384;2023-09-19T06:32:07;6.33;;;1.90;;
16800;SDS011;8518;53.236;10.384;2023-09-19T06:34:37;8.93;;;2.13;;
16800;SDS011;8518;53.236;10.384;2023-09-19T06:40:25;5.63;;;2.07;;
16800;SDS011;8518;53.236;10.384;2023-09-19T06:46:15;7.63;;;2.07;;
16800;SDS011;8518;53.236;10.384;2023-09-19T06:48:40;5.50;;;1.70;;
16800;SDS011;8518;53.236;10.384;2023-09-19T06:51:09;9.60;;;1.90;;
16800;SDS011;8518;53.236;10.384;2023-09-19T06:53:36;9.03;;;2.37;;
16800;SDS011;8518;53.236;10.384;2023-09-19T06:56:02;8.87;;;2.37;;
16800;SDS011;8518;53.236;10.384;2023-09-19T06:58:27;5.57;;;2.27;;
16800;SDS011;8518;53.236;10.384;2023-09-19T07:00:56;6.33;;;2.17;;
16800;SDS011;8518;53.236;10.384;2023-09-19T07:03:22;9.43;;;2.97;;
16800;SDS011;8518;53.236;10.384;2023-09-19T07:05:52;8.23;;;2.50;;
16800;SDS011;8518;53.236;10.384;2023-09-19T07:08:23;7.17;;;2.27;;
16800;SDS011;8518;53.236;10.384;2023-09-19T07:10:50;5.87;;;2.20;;
16800;SDS011;8518;53.236;10.384;2023-09-19T07:13:20;8.13;;;2.17;;
16800;SDS011;8518;53.236;10.384;2023-09-19T07:15:46;9.40;;;2.40;;
16800;SDS011;8518;53.236;10.384;2023-09-19T07:18:12;7.97;;;2.50;;
16800;SDS011;8518;53.236;10.384;2023-09-19T07:20:44;6.23;;;1.77;;
16800;SDS011;8518;53.236;10.384;2023-09-19T07:23:24;10.10;;;2.60;;
16800;SDS011;8518;53.236;10.384;2023-09-19T07:25:51;7.93;;;2.50;;
16800;SDS011;8518;53.236;10.384;2023-09-19T07:28:21;10.33;;;2.70;;
16800;SDS011;8518;53.236;10.384;2023-09-19T07:30:47;8.40;;;2.53;;
16800;SDS011;8518;53.236;10.384;2023-09-19T07:33:13;7.10;;;2.20;;
16800;SDS011;8518;53.236;10.384;2023-09-19T07:35:51;6.53;;;2.37;;
16800;SDS011;8518;53.236;10.384;2023-09-19T07:38:17;9.37;;;2.70;;
16800;SDS011;8518;53.236;10.384;2023-09-19T07:40:42;7.00;;;2.40;;
16800;SDS011;8518;53.236;10.384;2023-09-19T07:43:08;8.33;;;3.00;;
16800;SDS011;8518;53.236;10.384;2023-09-19T07:45:34;9.20;;;2.43;;
16800;SDS011;8518;53.236;10.384;2023-09-19T07:51:23;8.87;;;3.20;;
16800;SDS011;8518;53.236;10.384;2023-09-19T07:57:11;6.30;;;2.50;;
16800;SDS011;8518;53.236;10.384;2023-09-19T07:59:37;7.28;;;2.38;;
16800;SDS011;8518;53.236;10.384;2023-09-19T08:02:07;8.43;;;2.67;;
16800;SDS011;8518;53.236;10.384;2023-09-19T08:04:41;6.03;;;2.30;;
16800;SDS011;8518;53.236;10.384;2023-09-19T08:10:30;10.60;;;2.58;;
16800;SDS011;8518;53.236;10.384;2023-09-19T08:13:00;6.80;;;2.30;;
16800;SDS011;8518;53.236;10.384;2023-09-19T08:15:27;8.27;;;2.07;;
16800;SDS011;8518;53.236;10.384;2023-09-19T08:21:15;8.13;;;2.20;;
16800;SDS011;8518;53.236;10.384;2023-09-19T08:23:44;6.55;;;2.00;;
16800;SDS011;8518;53.236;10.384;2023-09-19T08:29:35;5.90;;;2.30;;
16800;SDS011;8518;53.236;10.384;2023-09-19T08:32:01;9.93;;;2.42;;
16800;SDS011;8518;53.236;10.384;2023-09-19T08:38:05;6.97;;;2.08;;
16800;SDS011;8518;53.236;10.384;2023-09-19T08:40:31;6.20;;;1.67;;
16800;SDS011;8518;53.236;10.384;2023-09-19T08:43:00;8.40;;;1.70;;
16800;SDS011;8518;53.236;10.384;2023-09-19T08:45:26;5.25;;;1.80;;
16800;SDS011;8518;53.236;10.384;2023-09-19T08:51:21;8.52;;;2.17;;
16800;SDS011;8518;53.236;10.384;2023-09-19T08:54:10;7.88;;;2.25;;
16800;SDS011;8518;53.236;10.384;2023-09-19T09:00:11;8.32;;;2.13;;
16800;SDS011;8518;53.236;10.384;2023-09-19T09:02:46;4.68;;;1.73;;
16800;SDS011;8518;53.236;10.384;2023-09-19T09:05:16;6.95;;;1.90;;
16800;SDS011;8518;53.236;10.384;2023-09-19T09:11:09;6.07;;;1.73;;
16800;SDS011;8518;53.236;10.384;2023-09-19T09:13:39;7.75;;;2.38;;
16800;SDS011;8518;53.236;10.384;2023-09-19T09:16:06;5.72;;;1.70;;
16800;SDS011;8518;53.236;10.384;2023-09-19T09:18:34;4.47;;;1.73;;
16800;SDS011;8518;53.236;10.384;2023-09-19T09:21:04;5.45;;;1.60;;
16800;SDS011;8518;53.236;10.384;2023-09-19T09:23:29;8.05;;;2.03;;
16800;SDS011;8518;53.236;10.384;2023-09-19T09:25:57;6.45;;;2.00;;
16800;SDS011;8518;53.236;10.384;2023-09-19T09:28:27;7.07;;;2.30;;
16800;SDS011;8518;53.236;10.384;2023-09-19T09:30:56;8.23;;;2.05;;
16800;SDS011;8518;53.236;10.384;2023-09-19T09:33:28;5.25;;;1.70;;
16800;SDS011;8518;53.236;10.384;2023-09-19T09:36:00;5.53;;;1.73;;
16800;SDS011;8518;53.236;10.384;2023-09-19T09:38:47;4.93;;;1.95;;
16800;SDS011;8518;53.236;10.384;2023-09-19T09:41:15;7.65;;;2.08;;
16800;SDS011;8518;53.236;10.384;2023-09-19T09:43:53;6.13;;;2.17;;
16800;SDS011;8518;53.236;10.384;2023-09-19T09:49:41;7.95;;;1.50;;
16800;SDS011;8518;53.236;10.384;2023-09-19T09:52:19;5.60;;;1.65;;
16800;SDS011;8518;53.236;10.384;2023-09-19T09:55:02;3.70;;;1.63;;
16800;SDS011;8518;53.236;10.384;2023-09-19T10:00:53;5.88;;;1.70;;
16800;SDS011;8518;53.236;10.384;2023-09-19T10:06:45;4.68;;;1.40;;
16800;SDS011;8518;53.236;10.384;2023-09-19T10:09:16;4.78;;;1.27;;
16800;SDS011;8518;53.236;10.384;2023-09-19T10:11:46;5.70;;;1.67;;
16800;SDS011;8518;53.236;10.384;2023-09-19T10:14:22;6.13;;;1.98;;
16800;SDS011;8518;53.236;10.384;2023-09-19T10:20:20;6.50;;;1.60;;
16800;SDS011;8518;53.236;10.384;2023-09-19T10:23:08;5.07;;;1.52;;
16800;SDS011;8518;53.236;10.384;2023-09-19T10:25:45;6.28;;;1.83;;
16800;SDS011;8518;53.236;10.384;2023-09-19T10:28:13;4.88;;;1.60;;
16800;SDS011;8518;53.236;10.384;2023-09-19T10:30:47;5.68;;;1.70;;
16800;SDS011;8518;53.236;10.384;2023-09-19T10:33:15;5.32;;;1.60;;
16800;SDS011;8518;53.236;10.384;2023-09-19T10:35:43;4.60;;;1.63;;
16800;SDS011;8518;53.236;10.384;2023-09-19T10:38:11;3.47;;;1.60;;
16800;SDS011;8518;53.236;10.384;2023-09-19T10:40:38;7.38;;;2.03;;
16800;SDS011;8518;53.236;10.384;2023-09-19T10:43:15;4.82;;;1.80;;
16800;SDS011;8518;53.236;10.384;2023-09-19T10:45:50;7.63;;;1.50;;
16800;SDS011;8518;53.236;10.384;2023-09-19T10:48:20;4.68;;;1.90;;
16800;SDS011;8518;53.236;10.384;2023-09-19T10:50:57;6.60;;;1.58;;
16800;SDS011;8518;53.236;10.384;2023-09-19T10:53:31;5.60;;;1.67;;
16800;SDS011;8518;53.236;10.384;2023-09-19T10:59:37;5.40;;;1.60;;
16800;SDS011;8518;53.236;10.384;2023-09-19T11:03:16;6.15;;;1.42;;
16800;SDS011;8518;53.236;10.384;2023-09-19T11:05:43;5.70;;;1.98;;
16800;SDS011;8518;53.236;10.384;2023-09-19T11:26:39;4.13;;;1.40;;
16800;SDS011;8518;53.236;10.384;2023-09-19T11:29:27;2.70;;;1.42;;
16800;SDS011;8518;53.236;10.384;2023-09-19T11:31:55;5.07;;;1.65;;
16800;SDS011;8518;53.236;10.384;2023-09-19T11:43:51;6.45;;;1.83;;
16800;SDS011;8518;53.236;10.384;2023-09-19T11:49:57;5.13;;;1.50;;
16800;SDS011;8518;53.236;10.384;2023-09-19T11:52:26;4.40;;;1.48;;
16800;SDS011;8518;53.236;10.384;2023-09-19T11:54:59;7.50;;;1.60;;
16800;SDS011;8518;53.236;10.384;2023-09-19T12:00:53;4.82;;;1.60;;
16800;SDS011;8518;53.236;10.384;2023-09-19T12:03:23;5.90;;;1.90;;
16800;SDS011;8518;53.236;10.384;2023-09-19T12:05:56;4.25;;;1.67;;
16800;SDS011;8518;53.236;10.384;2023-09-19T12:08:24;5.00;;;1.75;;
16800;SDS011;8518;53.236;10.384;2023-09-19T12:10:51;3.58;;;1.77;;
16800;SDS011;8518;53.236;10.384;2023-09-19T12:13:20;4.70;;;1.75;;
16800;SDS011;8518;53.236;10.384;2023-09-19T12:15:46;7.53;;;2.10;;
16800;SDS011;8518;53.236;10.384;2023-09-19T12:18:30;4.57;;;1.60;;
16800;SDS011;8518;53.236;10.384;2023-09-19T12:20:55;3.70;;;1.52;;
16800;SDS011;8518;53.236;10.384;2023-09-19T12:23:24;7.30;;;2.33;;
16800;SDS011;8518;53.236;10.384;2023-09-19T12:25:52;5.28;;;1.77;;
16800;SDS011;8518;53.236;10.384;2023-09-19T12:28:21;5.85;;;2.05;;
16800;SDS011;8518;53.236;10.384;2023-09-19T12:30:55;5.40;;;1.92;;
16800;SDS011;8518;53.236;10.384;2023-09-19T12:33:20;5.90;;;2.00;;
16800;SDS011;8518;53.236;10.384;2023-09-19T12:35:50;5.07;;;2.00;;
16800;SDS011;8518;53.236;10.384;2023-09-19T12:38:52;5.90;;;2.00;;
16800;SDS011;8518;53.236;10.384;2023-09-19T12:41:16;7.18;;;1.92;;
16800;SDS011;8518;53.236;10.384;2023-09-19T12:43:45;5.18;;;1.83;;
16800;SDS011;8518;53.236;10.384;2023-09-19T12:49:32;5.47;;;1.65;;
16800;SDS011;8518;53.236;10.384;2023-09-19T12:55:24;7.22;;;1.95;;
16800;SDS011;8518;53.236;10.384;2023-09-19T13:01:14;3.83;;;1.60;;
16800;SDS011;8518;53.236;10.384;2023-09-19T13:03:40;6.18;;;1.95;;
16800;SDS011;8518;53.236;10.384;2023-09-19T13:06:07;5.35;;;1.95;;
16800;SDS011;8518;53.236;10.384;2023-09-19T13:08:35;6.00;;;2.10;;
16800;SDS011;8518;53.236;10.384;2023-09-19T13:13:45;4.80;;;2.05;;
16800;SDS011;8518;53.236;10.384;2023-09-19T13:19:46;7.60;;;2.08;;
16800;SDS011;8518;53.236;10.384;2023-09-19T13:22:38;4.38;;;1.90;;
16800;SDS011;8518;53.236;10.384;2023-09-19T13:25:27;4.78;;;1.90;;
16800;SDS011;8518;53.236;10.384;2023-09-19T13:31:17;5.95;;;2.08;;
16800;SDS011;8518;53.236;10.384;2023-09-19T13:37:06;4.88;;;1.50;;
16800;SDS011;8518;53.236;10.384;2023-09-19T13:39:33;7.07;;;2.35;;
16800;SDS011;8518;53.236;10.384;2023-09-19T13:41:59;5.03;;;1.90;;
16800;SDS011;8518;53.236;10.384;2023-09-19T13:44:28;10.95;;;2.38;;
16800;SDS011;8518;53.236;10.384;2023-09-19T13:50:17;5.47;;;1.98;;
16800;SDS011;8518;53.236;10.384;2023-09-19T13:52:48;4.55;;;1.88;;
16800;SDS011;8518;53.236;10.384;2023-09-19T13:55:19;7.57;;;2.22;;
16800;SDS011;8518;53.236;10.384;2023-09-19T14:01:07;6.40;;;1.83;;
16800;SDS011;8518;53.236;10.384;2023-09-19T14:03:40;4.70;;;1.70;;
16800;SDS011;8518;53.236;10.384;2023-09-19T14:09:33;7.28;;;1.83;;
16800;SDS011;8518;53.236;10.384;2023-09-19T14:11:59;8.65;;;2.08;;
16800;SDS011;8518;53.236;10.384;2023-09-19T14:14:24;6.40;;;2.10;;
16800;SDS011;8518;53.236;10.384;2023-09-19T14:20:12;5.85;;;2.15;;
16800;SDS011;8518;53.236;10.384;2023-09-19T14:22:44;8.00;;;2.25;;
16800;SDS011;8518;53.236;10.384;2023-09-19T14:25:11;6.70;;;2.30;;
16800;SDS011;8518;53.236;10.384;2023-09-19T14:31:03;5.75;;;1.98;;
16800;SDS011;8518;53.236;10.384;2023-09-19T14:33:35;6.55;;;2.53;;
16800;SDS011;8518;53.236;10.384;2023-09-19T14:36:04;6.40;;;2.17;;
16800;SDS011;8518;53.236;10.384;2023-09-19T14:38:36;5.82;;;1.95;;
16800;SDS011;8518;53.236;10.384;2023-09-19T14:41:03;6.65;;;2.05;;
16800;SDS011;8518;53.236;10.384;2023-09-19T14:43:32;5.40;;;1.90;;
16800;SDS011;8518;53.236;10.384;2023-09-19T14:46:07;5.95;;;2.10;;
16800;SDS011;8518;53.236;10.384;2023-09-19T14:48:34;5.32;;;2.20;;
16800;SDS011;8518;53.236;10.384;2023-09-19T14:51:05;5.63;;;1.88;;
16800;SDS011;8518;53.236;10.384;2023-09-19T14:53:33;5.53;;;1.95;;
16800;SDS011;8518;53.236;10.384;2023-09-19T14:56:07;7.18;;;2.30;;
16800;SDS011;8518;53.236;10.384;2023-09-19T14:58:33;10.10;;;2.20;;
16800;SDS011;8518;53.236;10.384;2023-09-19T15:01:06;5.10;;;1.98;;
16800;SDS011;8518;53.236;10.384;2023-09-19T15:03:32;5.90;;;2.60;;
16800;SDS011;8518;53.236;10.384;2023-09-19T15:06:02;5.60;;;2.25;;
16800;SDS011;8518;53.236;10.384;2023-09-19T15:08:32;7.50;;;2.05;;
16800;SDS011;8518;53.236;10.384;2023-09-19T15:10:59;8.40;;;2.20;;
16800;SDS011;8518;53.236;10.384;2023-09-19T15:13:39;7.90;;;1.95;;
16800;SDS011;8518;53.236;10.384;2023-09-19T15:16:06;11.93;;;2.58;;
16800;SDS011;8518;53.236;10.384;2023-09-19T15:18:36;9.40;;;2.22;;
16800;SDS011;8518;53.236;10.384;2023-09-19T15:21:03;7.05;;;2.20;;
16800;SDS011;8518;53.236;10.384;2023-09-19T15:23:32;4.40;;;1.80;;
16800;SDS011;8518;53.236;10.384;2023-09-19T15:26:09;5.25;;;2.30;;
16800;SDS011;8518;53.236;10.384;2023-09-19T15:28:39;8.52;;;2.33;;
16800;SDS011;8518;53.236;10.384;2023-09-19T15:31:06;7.82;;;2.00;;
16800;SDS011;8518;53.236;10.384;2023-09-19T15:33:39;7.15;;;2.17;;
16800;SDS011;8518;53.236;10.384;2023-09-19T15:39:29;7.25;;;1.83;;
16800;SDS011;8518;53.236;10.384;2023-09-19T15:42:01;4.15;;;1.85;;
16800;SDS011;8518;53.236;10.384;2023-09-19T15:44:27;5.97;;;2.00;;
16800;SDS011;8518;53.236;10.384;2023-09-19T15:50:15;5.70;;;2.17;;
16800;SDS011;8518;53.236;10.384;2023-09-19T15:52:43;6.72;;;2.17;;
16800;SDS011;8518;53.236;10.384;2023-09-19T15:55:18;6.68;;;2.15;;
16800;SDS011;8518;53.236;10.384;2023-09-19T16:01:06;5.93;;;1.83;;
16800;SDS011;8518;53.236;10.384;2023-09-19T16:03:38;8.25;;;2.15;;
16800;SDS011;8518;53.236;10.384;2023-09-19T16:09:27;8.43;;;2.10;;
16800;SDS011;8518;53.236;10.384;2023-09-19T16:11:56;5.35;;;2.10;;
16800;SDS011;8518;53.236;10.384;2023-09-19T16:14:22;8.05;;;2.30;;
16800;SDS011;8518;53.236;10.384;2023-09-19T16:20:09;4.85;;;2.10;;
16800;SDS011;8518;53.236;10.384;2023-09-19T16:22:37;7.43;;;1.98;;
16800;SDS011;8518;53.236;10.384;2023-09-19T16:25:05;7.30;;;2.50;;
16800;SDS011;8518;53.236;10.384;2023-09-19T16:31:00;6.68;;;1.95;;
16800;SDS011;8518;53.236;10.384;2023-09-19T16:33:27;5.70;;;1.80;;
16800;SDS011;8518;53.236;10.384;2023-09-19T16:35:54;6.10;;;2.17;;
16800;SDS011;8518;53.236;10.384;2023-09-19T16:38:19;7.18;;;2.30;;
16800;SDS011;8518;53.236;10.384;2023-09-19T16:40:55;6.15;;;2.05;;
16800;SDS011;8518;53.236;10.384;2023-09-19T16:43:25;6.88;;;1.75;;
16800;SDS011;8518;53.236;10.384;2023-09-19T16:45:52;5.53;;;2.10;;
16800;SDS011;8518;53.236;10.384;2023-09-19T16:48:21;4.05;;;1.80;;
16800;SDS011;8518;53.236;10.384;2023-09-19T16:50:48;5.55;;;1.65;;
16800;SDS011;8518;53.236;10.384;2023-09-19T16:53:15;6.80;;;2.10;;
16800;SDS011;8518;53.236;10.384;2023-09-19T16:55:42;6.18;;;2.00;;
16800;SDS011;8518;53.236;10.384;2023-09-19T17:01:31;8.43;;;1.90;;
16800;SDS011;8518;53.236;10.384;2023-09-19T17:03:57;5.90;;;1.92;;
16800;SDS011;8518;53.236;10.384;2023-09-19T17:09:49;4.50;;;1.80;;
16800;SDS011;8518;53.236;10.384;2023-09-19T17:12:15;5.85;;;1.88;;
16800;SDS011;8518;53.236;10.384;2023-09-19T17:14:44;6.20;;;1.73;;
16800;SDS011;8518;53.236;10.384;2023-09-19T17:20:32;5.05;;;1.83;;
16800;SDS011;8518;53.236;10.384;2023-09-19T17:22:57;7.30;;;1.85;;
16800;SDS011;8518;53.236;10.384;2023-09-19T17:25:23;3.78;;;1.70;;
16800;SDS011;8518;53.236;10.384;2023-09-19T17:31:12;4.45;;;1.70;;
16800;SDS011;8518;53.236;10.384;2023-09-19T17:33:47;4.63;;;2.10;;
16800;SDS011;8518;53.236;10.384;2023-09-19T17:39:35;6.15;;;1.95;;
16800;SDS011;8518;53.236;10.384;2023-09-19T17:42:01;9.60;;;2.00;;
16800;SDS011;8518;53.236;10.384;2023-09-19T17:44:28;4.65;;;1.80;;
16800;SDS011;8518;53.236;10.384;2023-09-19T17:50:22;3.37;;;1.47;;
16800;SDS011;8518;53.236;10.384;2023-09-19T17:52:49;6.18;;;1.60;;
16800;SDS011;8518;53.236;10.384;2023-09-19T17:55:15;5.13;;;1.50;;
16800;SDS011;8518;53.236;10.384;2023-09-19T18:01:22;6.13;;;1.73;;
16800;SDS011;8518;53.236;10.384;2023-09-19T18:03:49;4.95;;;1.90;;
16800;SDS011;8518;53.236;10.384;2023-09-19T18:09:44;4.07;;;1.67;;
16800;SDS011;8518;53.236;10.384;2023-09-19T18:12:12;4.53;;;1.70;;
16800;SDS011;8518;53.236;10.384;2023-09-19T18:14:41;7.82;;;1.90;;
16800;SDS011;8518;53.236;10.384;2023-09-19T18:20:29;5.33;;;1.80;;
16800;SDS011;8518;53.236;10.384;2023-09-19T18:22:59;3.13;;;1.45;;
16800;SDS011;8518;53.236;10.384;2023-09-19T18:25:26;4.70;;;1.60;;
16800;SDS011;8518;53.236;10.384;2023-09-19T18:31:14;5.18;;;1.73;;
16800;SDS011;8518;53.236;10.384;2023-09-19T18:33:41;5.80;;;1.67;;
16800;SDS011;8518;53.236;10.384;2023-09-19T18:36:07;4.78;;;1.25;;
16800;SDS011;8518;53.236;10.384;2023-09-19T18:38:37;4.88;;;1.67;;
16800;SDS011;8518;53.236;10.384;2023-09-19T18:41:08;4.33;;;1.53;;
16800;SDS011;8518;53.236;10.384;2023-09-19T18:43:55;4.63;;;1.55;;
16800;SDS011;8518;53.236;10.384;2023-09-19T18:49:44;3.78;;;1.38;;
16800;SDS011;8518;53.236;10.384;2023-09-19T18:52:13;6.13;;;1.80;;
16800;SDS011;8518;53.236;10.384;2023-09-19T18:54:38;4.60;;;1.52;;
16800;SDS011;8518;53.236;10.384;2023-09-19T19:00:33;3.05;;;1.20;;
16800;SDS011;8518;53.236;10.384;2023-09-19T19:02:59;4.82;;;1.38;;
16800;SDS011;8518;53.236;10.384;2023-09-19T19:05:30;3.10;;;1.52;;
16800;SDS011;8518;53.236;10.384;2023-09-19T19:11:21;6.47;;;1.50;;
16800;SDS011;8518;53.236;10.384;2023-09-19T19:17:10;3.97;;;1.43;;
16800;SDS011;8518;53.236;10.384;2023-09-19T19:19:37;4.80;;;1.30;;
16800;SDS011;8518;53.236;10.384;2023-09-19T19:22:04;4.30;;;1.30;;
16800;SDS011;8518;53.236;10.384;2023-09-19T19:24:31;3.63;;;1.33;;
16800;SDS011;8518;53.236;10.384;2023-09-19T19:30:19;2.20;;;1.00;;
16800;SDS011;8518;53.236;10.384;2023-09-19T19:32:46;4.05;;;1.20;;
16800;SDS011;8518;53.236;10.384;2023-09-19T19:35:15;3.63;;;1.13;;
16800;SDS011;8518;53.236;10.384;2023-09-19T19:41:17;2.67;;;1.10;;
16800;SDS011;8518;53.236;10.384;2023-09-19T19:43:46;3.27;;;1.13;;
16800;SDS011;8518;53.236;10.384;2023-09-19T19:49:34;3.78;;;1.17;;
16800;SDS011;8518;53.236;10.384;2023-09-19T19:52:07;2.58;;;1.15;;
16800;SDS011;8518;53.236;10.384;2023-09-19T19:54:33;2.22;;;0.80;;
16800;SDS011;8518;53.236;10.384;2023-09-19T20:00:21;2.38;;;0.90;;
16800;SDS011;8518;53.236;10.384;2023-09-19T20:02:50;5.32;;;0.95;;
16800;SDS011;8518;53.236;10.384;2023-09-19T20:05:16;2.72;;;1.10;;